Beaver Creek, Canada
Current Conditions -  °F | °C
As of 12:53 PM on Thursday 23 Oct 2014 (Local Time) from PAOR Reporting Station
Light Snow Light Snow  
Wind Chill: 18°   Ceiling: 4000
Heat Index: 25°   Visibility: 8mi
Dew Point: 20°   Wind: 6mph
Humidity: 81%   Direction: 310°NW
Pressure: 29.7"   Gusts: NA
Location:  62.36°N, 140.87°W
Report Text: PAOR 231953Z 31005KT 8SM -SN FEW004 BKN040 OVC070 M04/M07 A2970 RMK AO2 SNB03 SLP091 T10391067
Loading
Personal Weather Stations






























Interactive Weather Map
Tropical Storm Tracking
New forecast layout! Learn more

10-Day Weather Forecast

Advertisements
Track Severe Weather on mobile